الصفحة الرئيسية
METAR-TAF:

METAR-TAF

مطار :

Acapulco, المكسيك

دائرة عرض: 16-46N, خط طول: 099-45W, ارتفاع: 5 متر

مراقبة الطقس الحالي

تاريخ ووقت الإصدار 1ساعة و 20 دقيقة قبل الساعة 17:45UTC
ريح 3 عقدة من الغرب/الجنوب الغربي
درجة الحرارة 31°درجة مئوية
الرطوبة 63%
ضغط 1012 hPa
الرؤية: 11.3 كم
سماء صافية

METAR: MMAA 171745Z 24003KT 7SM SKC 31/23 A2989 RMK SLP114 57020 951 HZY ISOL CI CU E

زمن: 13:05 (19:05 UTC)

توقعات

تاريخ ووقت الإصدار 2ساعات و 34 دقيقة قبل الساعة 16:31UTC
التوقعات صالحة من17 الساعة 18 UTC إلى 18 الساعة 24 UTC
ريح 10 عقدة من الغرب/الجنوب الغربي
الرؤية: 9.7 كم
غيوم متفرقة على ارتفاع 30000 قدم
العجاج
من 18 الساعة 0400 UTC
ريح 5 عقدة من الجنوب الغربي
الرؤية: 9.7 كم
غيوم متفرقة على ارتفاع 30000 قدم
العجاج
من 18 الساعة 1800 UTC
ريح 10 عقدة من الجنوب الغربي
الرؤية: 10 كم
غيوم متفرقة على ارتفاع 30000 قدم

TAF: MMAA 171631Z 1718/1824 24010KT 6SM HZ SCT300 TX30/1719Z TN23/1812Z FM180400 23005KT 6SM HZ SCT300 FM181800 23010KT P6SM SCT300

أرصاد الطقس والتوقعات من أكثر من 4000 مطار (تقارير الطقس للمطار METAR والتنبؤ بالطقس بالمطارTAF).

المحطات المتاحة هي النقط الصفراء والحمراء على الخريطة.

حرك المؤشر فوق النقطة لمعرفة اسم المحطة.

ثم انقر لمعرفة أرصاد وتوقعات الطقس.

لتغيير الخارطة: اضغط على الأزرار الخضراء مع رمز الصليب الأسود للتكبير. على الزر الأخضر مع شرطة للتصغير، أو على الأسهم الخضراء للخرائط المجاورة.


METAR-TAF: